Time;durP1;ratioP1;P1;durP2;ratioP2;P2;SDS_P1;SDS_P2;PMS_P1;PMS_P2;Temp;Humidity;BMP_temperature;BMP_pressure;BME280_temperature;BME280_humidity;BME280_pressure;Samples;Min_cycle;Max_cycle;Signal;HPM_P1;HPM_P2
2023/08/07 00:00:12;;;;;;;3.05;0.80;;;;;;;19.75;67.33;101473.56;5027731;28;20036;-72
2023/08/07 00:02:37;;;;;;;8.68;1.27;;;;;;;20.29;64.47;101473.25;5030091;28;20436;-72
2023/08/07 00:05:03;;;;;;;9.85;1.77;;;;;;;20.31;64.64;101476.72;5029407;28;20029;-72
2023/08/07 00:07:28;;;;;;;9.25;1.42;;;;;;;20.50;62.85;101477.69;5029539;28;20359;-72
2023/08/07 00:09:54;;;;;;;5.85;1.48;;;;;;;20.34;63.70;101477.44;5023706;28;20840;-71
2023/08/07 00:12:19;;;;;;;4.22;1.20;;;;;;;20.09;62.85;101482.88;5027926;28;20069;-72
2023/08/07 00:14:47;;;;;;;4.80;0.77;;;;;;;19.18;67.70;101478.34;5027169;28;20080;-72
2023/08/07 00:17:13;;;;;;;6.45;1.20;;;;;;;20.24;63.66;101486.72;5009081;28;20025;-72
2023/08/07 00:19:38;;;;;;;3.22;1.00;;;;;;;19.78;63.73;101478.75;5008321;28;20382;-72
2023/08/07 00:22:04;;;;;;;4.43;1.50;;;;;;;20.34;64.91;101481.91;5024872;28;20497;-72
2023/08/07 00:24:29;;;;;;;9.45;1.48;;;;;;;20.58;61.78;101484.47;5037623;28;20033;-71
2023/08/07 00:26:54;;;;;;;5.55;1.05;;;;;;;20.67;60.19;101484.09;5015687;28;20354;-72
2023/08/07 00:29:20;;;;;;;2.47;0.80;;;;;;;20.23;61.25;101478.81;5019174;28;20056;-72
2023/08/07 00:31:45;;;;;;;4.85;1.02;;;;;;;19.37;63.34;101481.19;5021585;28;20037;-72
2023/08/07 00:34:11;;;;;;;7.07;1.58;;;;;;;20.24;61.88;101480.56;5025841;28;20470;-71
2023/08/07 00:36:36;;;;;;;3.53;1.00;;;;;;;20.55;60.80;101479.28;5008634;28;20025;-71
2023/08/07 00:39:05;;;;;;;9.23;1.50;;;;;;;20.04;62.19;101476.88;5026908;28;20029;-72
2023/08/07 00:41:30;;;;;;;4.47;1.17;;;;;;;20.54;62.12;101485.50;5027243;28;20029;-72
2023/08/07 00:43:56;;;;;;;7.88;1.35;;;;;;;20.75;61.85;101487.31;5034503;28;20025;-72
2023/08/07 00:46:21;;;;;;;9.38;1.88;;;;;;;21.04;60.33;101487.84;5033700;28;20098;-72
2023/08/07 00:48:47;;;;;;;1.98;0.88;;;;;;;20.90;60.49;101506.19;5031379;28;20029;-72
2023/08/07 00:51:13;;;;;;;5.43;1.60;;;;;;;19.81;66.28;101504.31;5030852;28;20112;-72
2023/08/07 00:53:39;;;;;;;3.75;1.00;;;;;;;19.79;65.44;101504.34;5031571;28;20112;-71
2023/08/07 00:56:06;;;;;;;4.18;1.48;;;;;;;20.18;64.85;101508.19;5033931;28;20061;-72
2023/08/07 00:58:32;;;;;;;5.88;0.80;;;;;;;20.33;66.72;101506.72;5036360;28;20087;-71
2023/08/07 01:00:58;;;;;;;7.97;1.48;;;;;;;20.04;66.64;101508.72;5031771;28;20423;-72
2023/08/07 01:03:24;;;;;;;5.32;1.05;;;;;;;19.57;69.32;101506.09;5030502;28;20408;-72
2023/08/07 01:05:49;;;;;;;5.22;1.20;;;;;;;19.47;68.29;101498.47;5031869;28;20017;-72
2023/08/07 01:08:15;;;;;;;2.13;0.80;;;;;;;19.87;66.54;101503.25;5024887;28;20425;-72
2023/08/07 01:10:51;;;;;;;4.38;1.25;;;;;;;19.03;70.00;101516.81;5012110;28;20365;-72
2023/08/07 01:13:28;;;;;;;5.93;1.15;;;;;;;19.15;71.53;101519.03;5018817;28;20120;-72
2023/08/07 01:15:58;;;;;;;4.50;1.48;;;;;;;19.07;74.24;101507.84;5032604;28;20040;-72
2023/08/07 01:18:25;;;;;;;8.23;1.27;;;;;;;19.40;72.21;101514.63;5031093;28;20025;-73
2023/08/07 01:20:51;;;;;;;6.20;1.13;;;;;;;19.77;71.50;101511.50;5011806;28;20029;-73
2023/08/07 01:23:16;;;;;;;4.00;1.42;;;;;;;19.89;68.09;101512.84;5012025;28;20469;-72
2023/08/07 01:25:42;;;;;;;5.05;0.98;;;;;;;18.99;74.31;101509.91;5030169;28;20045;-72
2023/08/07 01:28:32;;;;;;;4.97;1.15;;;;;;;19.40;72.62;101501.38;5013765;28;20441;-72
2023/08/07 01:31:01;;;;;;;3.70;1.30;;;;;;;19.98;68.05;101496.56;5025245;28;20489;-72
2023/08/07 01:33:32;;;;;;;7.75;1.40;;;;;;;19.79;68.83;101501.69;5028047;28;20509;-72
2023/08/07 01:36:02;;;;;;;5.35;1.20;;;;;;;19.81;65.69;101504.31;5031658;28;20037;-72
2023/08/07 01:38:29;;;;;;;4.25;1.00;;;;;;;19.81;66.73;101510.50;5026630;28;20088;-72
2023/08/07 01:40:56;;;;;;;3.42;0.95;;;;;;;19.17;66.99;101496.94;5045861;28;20041;-71
2023/08/07 01:43:22;;;;;;;6.38;1.42;;;;;;;20.31;64.06;101506.78;5031801;28;20393;-71
2023/08/07 01:45:47;;;;;;;6.70;2.10;;;;;;;19.79;63.33;101506.13;5026675;28;20430;-71
2023/08/07 01:48:13;;;;;;;3.42;1.10;;;;;;;19.12;70.25;101521.81;5012605;28;20080;-72
2023/08/07 01:50:39;;;;;;;4.88;1.02;;;;;;;18.51;73.79;101530.00;5045553;28;20014;-72
2023/08/07 01:53:05;;;;;;;4.95;1.33;;;;;;;19.31;71.84;101515.84;5010526;28;20032;-73
2023/08/07 01:55:31;;;;;;;7.25;1.52;;;;;;;19.03;72.90;101511.53;5030530;28;20033;-72
2023/08/07 01:57:56;;;;;;;4.72;1.27;;;;;;;18.96;73.48;101512.66;5027582;28;20044;-72
2023/08/07 02:00:22;;;;;;;4.63;1.40;;;;;;;19.50;70.40;101501.00;5029829;28;20032;-72
2023/08/07 02:02:47;;;;;;;3.47;1.23;;;;;;;19.37;70.36;101510.34;5021134;28;20037;-72
2023/08/07 02:05:13;;;;;;;9.07;1.40;;;;;;;19.54;67.20;101506.22;5011233;28;20018;-72
2023/08/07 02:07:39;;;;;;;9.20;1.42;;;;;;;19.65;67.78;101514.63;5035806;28;20029;-72
2023/08/07 02:10:05;;;;;;;8.25;1.60;;;;;;;19.73;66.79;101507.25;5031049;28;20032;-72
2023/08/07 02:12:33;;;;;;;4.85;0.90;;;;;;;19.25;66.00;101505.47;5030793;28;20025;-72
2023/08/07 02:15:00;;;;;;;2.65;1.60;;;;;;;19.56;65.15;101499.91;5030457;28;20026;-71
2023/08/07 02:17:27;;;;;;;6.95;1.30;;;;;;;19.31;65.31;101498.16;5034126;28;20036;-72
2023/08/07 02:19:53;;;;;;;11.93;1.52;;;;;;;19.84;63.92;101498.91;5029788;28;20033;-72
2023/08/07 02:22:19;;;;;;;13.70;1.83;;;;;;;19.69;62.97;101500.31;5029775;28;20021;-71
2023/08/07 02:24:44;;;;;;;5.78;1.17;;;;;;;19.56;64.01;101509.66;5030736;28;20156;-71
2023/08/07 02:27:09;;;;;;;4.78;1.65;;;;;;;19.94;60.84;101515.34;5031037;28;20488;-71
2023/08/07 02:29:35;;;;;;;3.85;1.08;;;;;;;20.47;61.04;101515.00;5029263;28;20408;-71
2023/08/07 02:32:04;;;;;;;8.43;1.60;;;;;;;20.61;58.75;101501.16;5030367;28;20068;-71
2023/08/07 02:34:30;;;;;;;1.55;1.10;;;;;;;20.20;61.38;101505.50;5036178;28;20049;-72
2023/08/07 02:36:55;;;;;;;5.20;0.95;;;;;;;19.90;60.78;101500.47;5044627;28;20037;-70
2023/08/07 02:39:21;;;;;;;6.55;1.13;;;;;;;19.98;61.47;101503.69;5045984;28;20455;-72
2023/08/07 02:41:46;;;;;;;6.32;1.33;;;;;;;19.98;61.44;101499.22;5029404;28;20029;-73
2023/08/07 02:44:12;;;;;;;8.90;1.40;;;;;;;19.99;60.62;101505.41;5029254;28;20617;-72
2023/08/07 02:46:37;;;;;;;8.02;1.38;;;;;;;19.80;61.76;101503.47;5030699;28;20021;-72
2023/08/07 02:49:03;;;;;;;5.80;1.77;;;;;;;20.43;59.38;101501.88;5032656;28;20111;-72
2023/08/07 02:51:29;;;;;;;6.80;1.77;;;;;;;20.64;59.86;101510.78;5031200;28;20053;-72
2023/08/07 02:53:54;;;;;;;9.20;1.63;;;;;;;19.70;62.87;101511.78;5028958;28;20440;-72
2023/08/07 02:56:19;;;;;;;3.13;1.10;;;;;;;19.99;63.43;101516.88;5029625;28;20072;-72
2023/08/07 02:58:45;;;;;;;8.30;1.52;;;;;;;19.71;64.47;101508.22;5030038;28;20097;-72
2023/08/07 03:01:11;;;;;;;3.95;1.00;;;;;;;19.37;67.24;101520.94;5040900;28;20050;-71
2023/08/07 03:03:37;;;;;;;3.90;1.13;;;;;;;19.41;67.27;101511.97;5027072;28;20029;-72
2023/08/07 03:06:03;;;;;;;3.70;1.15;;;;;;;20.04;64.10;101511.38;5029513;28;20029;-72
2023/08/07 03:08:29;;;;;;;4.88;0.65;;;;;;;20.19;63.43;101519.69;5030095;28;20036;-72
2023/08/07 03:10:57;;;;;;;0.43;0.22;;;;;;;18.88;67.90;101520.00;5029746;28;20282;-72
2023/08/07 03:13:26;;;;;;;4.30;1.33;;;;;;;19.27;67.67;101522.19;5030794;28;20021;-72
2023/08/07 03:15:59;;;;;;;5.55;0.77;;;;;;;19.45;68.19;101518.88;5028709;28;20500;-72
2023/08/07 03:18:25;;;;;;;6.25;0.85;;;;;;;19.43;73.84;101520.69;5028462;28;20025;-73
2023/08/07 03:20:50;;;;;;;2.42;0.80;;;;;;;19.50;73.05;101521.34;5026229;28;20075;-74
2023/08/07 03:23:16;;;;;;;3.67;0.90;;;;;;;19.51;74.67;101520.44;5041120;28;20405;-72
2023/08/07 03:25:41;;;;;;;1.73;0.88;;;;;;;19.12;74.56;101526.22;5031607;28;20040;-72
2023/08/07 03:28:06;;;;;;;4.25;0.90;;;;;;;19.78;74.33;101518.53;5046692;28;20086;-72
2023/08/07 03:30:32;;;;;;;6.15;1.08;;;;;;;19.16;78.35;101522.56;5030204;28;20041;-73
2023/08/07 03:32:57;;;;;;;5.38;1.17;;;;;;;18.80;81.60;101525.53;5029922;28;20017;-73
2023/08/07 03:35:22;;;;;;;8.40;0.88;;;;;;;18.94;80.47;101527.72;5012426;28;20034;-72
2023/08/07 03:37:48;;;;;;;6.00;0.82;;;;;;;18.92;80.48;101525.13;5030569;28;20345;-72
2023/08/07 03:40:14;;;;;;;5.13;1.52;;;;;;;18.87;80.51;101523.53;5025130;28;20033;-72
2023/08/07 03:42:39;;;;;;;11.70;1.30;;;;;;;19.65;75.95;101526.06;5025647;28;20084;-72
2023/08/07 03:45:05;;;;;;;5.65;1.38;;;;;;;19.76;74.68;101523.03;5040384;28;20029;-72
2023/08/07 03:47:30;;;;;;;3.65;0.90;;;;;;;19.80;74.38;101519.38;5030564;28;20113;-72
2023/08/07 03:49:56;;;;;;;6.03;1.25;;;;;;;19.77;74.25;101519.47;5028216;28;20091;-72
2023/08/07 03:52:21;;;;;;;4.47;0.75;;;;;;;19.31;76.63;101524.66;5024890;28;20108;-72
2023/08/07 03:54:47;;;;;;;6.13;0.90;;;;;;;19.12;76.95;101527.09;5015753;28;20030;-72
2023/08/07 03:57:12;;;;;;;3.15;1.20;;;;;;;19.18;77.96;101525.16;5025628;28;20651;-73
2023/08/07 03:59:37;;;;;;;2.50;0.90;;;;;;;19.26;78.55;101528.38;5018199;28;20036;-72
2023/08/07 04:02:03;;;;;;;5.78;1.30;;;;;;;19.35;78.98;101528.06;5029974;28;20030;-72
2023/08/07 04:04:29;;;;;;;1.67;0.73;;;;;;;19.37;76.44;101520.94;5020715;28;20029;-72
2023/08/07 04:06:54;;;;;;;4.18;1.17;;;;;;;18.96;78.25;101525.91;5009246;28;20022;-73
2023/08/07 04:09:20;;;;;;;8.60;1.50;;;;;;;19.74;75.95;101510.75;5035892;28;20161;-72
2023/08/07 04:11:45;;;;;;;3.30;1.00;;;;;;;19.88;75.88;101513.78;5029074;28;20057;-73
2023/08/07 04:14:11;;;;;;;5.80;1.23;;;;;;;20.09;72.30;101512.06;5028708;28;20083;-72
2023/08/07 04:16:37;;;;;;;3.97;1.33;;;;;;;19.48;73.64;101512.56;5029833;28;20104;-72
2023/08/07 04:19:03;;;;;;;5.85;1.23;;;;;;;19.52;75.65;101518.63;5025356;28;20018;-72
2023/08/07 04:21:30;;;;;;;6.50;2.00;;;;;;;20.03;72.86;101517.63;5024461;28;20112;-73
2023/08/07 04:23:55;;;;;;;7.93;1.30;;;;;;;19.99;71.94;101524.00;5029564;28;20028;-73
2023/08/07 04:26:21;;;;;;;8.25;1.75;;;;;;;19.91;71.26;101515.47;5025700;28;20563;-72
2023/08/07 04:28:46;;;;;;;6.65;1.70;;;;;;;19.41;74.05;101511.97;5025439;28;20717;-73
2023/08/07 04:31:12;;;;;;;10.60;1.90;;;;;;;19.83;71.82;101513.94;5009124;28;20105;-73
2023/08/07 04:33:38;;;;;;;7.85;1.98;;;;;;;19.72;72.90;101516.13;5025225;28;20425;-72
2023/08/07 04:36:04;;;;;;;9.07;1.60;;;;;;;19.82;72.76;101522.84;5028153;28;20167;-72
2023/08/07 04:38:29;;;;;;;3.67;1.40;;;;;;;19.62;72.35;101530.66;5028016;28;20029;-72
2023/08/07 04:40:54;;;;;;;2.85;1.23;;;;;;;19.45;71.54;101534.78;5009931;28;20033;-72
2023/08/07 04:43:20;;;;;;;8.60;1.42;;;;;;;20.21;69.43;101544.34;5008456;28;20030;-72
2023/08/07 04:45:46;;;;;;;9.73;2.90;;;;;;;19.53;68.45;101546.88;5009577;28;20033;-72
2023/08/07 04:48:11;;;;;;;6.03;1.60;;;;;;;20.02;68.22;101542.44;5025341;28;20116;-72
2023/08/07 04:50:37;;;;;;;5.15;1.77;;;;;;;19.64;67.57;101544.69;5025704;28;20039;-71
2023/08/07 04:53:04;;;;;;;4.07;1.50;;;;;;;20.01;65.97;101540.69;5028401;28;20389;-72
2023/08/07 04:55:31;;;;;;;6.18;1.40;;;;;;;20.67;63.76;101546.03;5028036;28;20036;-72
2023/08/07 04:57:56;;;;;;;3.08;1.25;;;;;;;20.43;63.55;101547.91;5031832;28;20025;-72
2023/08/07 05:00:23;;;;;;;3.33;1.05;;;;;;;20.23;64.45;101548.69;5029439;28;20099;-72
2023/08/07 05:02:48;;;;;;;10.02;1.35;;;;;;;20.08;65.55;101549.28;5026179;28;20151;-72
2023/08/07 05:05:14;;;;;;;5.90;1.02;;;;;;;20.17;63.85;101549.78;5028412;28;20081;-72
2023/08/07 05:07:41;;;;;;;8.68;1.50;;;;;;;19.87;64.05;101546.53;5027915;28;20025;-72
2023/08/07 05:10:07;;;;;;;6.68;1.25;;;;;;;19.90;63.00;101550.88;5027124;28;20060;-72
2023/08/07 05:12:32;;;;;;;6.20;1.17;;;;;;;20.07;63.01;101553.75;5028511;28;20067;-72
2023/08/07 05:14:57;;;;;;;5.95;0.95;;;;;;;20.41;60.67;101552.41;5018983;28;20065;-72
2023/08/07 05:17:23;;;;;;;7.75;1.00;;;;;;;20.50;60.45;101567.97;5017862;28;20041;-72
2023/08/07 05:19:48;;;;;;;10.07;2.50;;;;;;;20.40;60.34;101566.63;5026933;28;20095;-72
2023/08/07 05:22:14;;;;;;;9.05;1.70;;;;;;;20.10;61.57;101579.28;5014303;28;20033;-73
2023/08/07 05:24:39;;;;;;;2.20;0.90;;;;;;;19.19;68.32;101590.47;5026728;28;20371;-74
2023/08/07 05:27:08;;;;;;;3.75;0.80;;;;;;;18.74;75.40;101587.50;5030511;28;20048;-74
2023/08/07 05:29:37;;;;;;;5.88;1.23;;;;;;;19.39;76.23;101585.34;5031580;28;20035;-73
2023/08/07 05:32:03;;;;;;;8.30;1.90;;;;;;;19.24;77.38;101593.84;5031157;28;20030;-73
2023/08/07 05:34:28;;;;;;;2.38;0.70;;;;;;;18.69;81.22;101591.22;5046942;28;20057;-73
2023/08/07 05:36:54;;;;;;;4.13;1.00;;;;;;;19.85;74.97;101585.50;5029001;28;20092;-73
2023/08/07 05:39:19;;;;;;;2.28;1.10;;;;;;;19.85;74.33;101579.34;5033259;28;20021;-73
2023/08/07 05:41:45;;;;;;;4.25;1.30;;;;;;;19.41;75.17;101585.28;5031425;28;20801;-73
2023/08/07 05:44:10;;;;;;;2.42;0.98;;;;;;;18.96;75.61;101605.38;5027867;28;20056;-74
2023/08/07 05:46:35;;;;;;;4.57;1.77;;;;;;;19.20;78.21;101600.16;5016956;28;20076;-74
2023/08/07 05:49:01;;;;;;;6.53;1.50;;;;;;;19.75;76.70;101603.50;5031596;28;20033;-74
2023/08/07 05:51:26;;;;;;;6.35;1.48;;;;;;;19.97;74.85;101605.41;5048729;28;20124;-74
2023/08/07 05:53:52;;;;;;;10.30;1.42;;;;;;;19.58;77.13;101614.72;5031187;28;20030;-73
2023/08/07 05:56:17;;;;;;;3.92;1.20;;;;;;;19.58;78.66;101604.13;5033192;28;20084;-73
2023/08/07 05:58:43;;;;;;;9.65;2.58;;;;;;;19.54;78.10;101602.50;5016931;28;20026;-73
2023/08/07 06:01:08;;;;;;;10.95;1.55;;;;;;;20.24;72.72;101594.69;5022146;28;20025;-72
2023/08/07 06:03:37;;;;;;;2.13;0.82;;;;;;;19.24;78.18;101604.44;5022528;28;20079;-73
2023/08/07 06:06:02;;;;;;;5.25;1.95;;;;;;;19.80;75.94;101593.63;5030738;28;20088;-72
2023/08/07 06:08:28;;;;;;;4.32;1.73;;;;;;;20.13;74.04;101601.25;5035173;28;20029;-72
2023/08/07 06:10:54;;;;;;;8.48;1.33;;;;;;;19.96;72.24;101608.97;5031261;28;20928;-72
2023/08/07 06:13:19;;;;;;;6.78;1.50;;;;;;;20.23;70.66;101604.41;5026597;28;20068;-72
2023/08/07 06:15:45;;;;;;;4.90;1.30;;;;;;;19.06;74.09;101600.63;5011171;28;20129;-72
2023/08/07 06:18:10;;;;;;;10.82;1.77;;;;;;;19.89;71.09;101607.47;5024255;28;20044;-72
2023/08/07 06:20:36;;;;;;;6.72;1.20;;;;;;;20.91;67.60;101614.19;5027387;28;20039;-72
2023/08/07 06:23:01;;;;;;;6.43;1.35;;;;;;;20.29;69.99;101611.28;5025906;28;20030;-72
2023/08/07 06:25:27;;;;;;;12.00;1.80;;;;;;;20.55;68.50;101612.06;5011043;28;20040;-72
2023/08/07 06:27:52;;;;;;;4.13;1.10;;;;;;;20.70;64.85;101619.44;5026043;28;20027;-72
2023/08/07 06:30:18;;;;;;;5.70;1.40;;;;;;;20.33;68.33;101620.84;5033235;28;20037;-72
2023/08/07 06:32:43;;;;;;;6.53;1.75;;;;;;;20.37;67.68;101624.28;5031837;28;20047;-71
2023/08/07 06:35:09;;;;;;;6.57;1.20;;;;;;;21.08;64.91;101632.09;5026250;28;20033;-70
2023/08/07 06:37:38;;;;;;;6.05;1.38;;;;;;;20.13;66.78;101634.91;5030517;28;20393;-71
2023/08/07 06:40:05;;;;;;;4.53;1.25;;;;;;;20.67;65.52;101632.81;5046756;28;20040;-72
2023/08/07 06:42:30;;;;;;;5.38;1.38;;;;;;;21.12;62.52;101634.56;5011847;28;20137;-72
2023/08/07 06:44:55;;;;;;;6.35;1.08;;;;;;;20.89;64.30;101637.31;5021361;28;20124;-72
2023/08/07 06:47:21;;;;;;;2.33;0.93;;;;;;;20.90;60.95;101644.38;5025285;28;20040;-71
2023/08/07 06:49:46;;;;;;;8.25;1.27;;;;;;;20.56;62.78;101635.03;5027600;28;20358;-72
2023/08/07 06:52:11;;;;;;;5.43;1.35;;;;;;;19.68;63.12;101636.47;5029926;28;20026;-73
2023/08/07 06:54:37;;;;;;;7.78;1.17;;;;;;;20.36;61.06;101634.03;5028736;28;20147;-72
2023/08/07 06:57:03;;;;;;;4.72;1.90;;;;;;;21.39;57.78;101637.00;5033522;28;20049;-72
2023/08/07 06:59:28;;;;;;;3.40;1.38;;;;;;;22.20;54.68;101637.84;5029997;28;20025;-72
2023/08/07 07:01:53;;;;;;;7.65;1.55;;;;;;;23.25;50.26;101634.66;5017919;28;20552;-72
2023/08/07 07:04:19;;;;;;;6.78;1.50;;;;;;;23.91;48.06;101637.53;5029382;28;20025;-72
2023/08/07 07:06:44;;;;;;;1.20;0.82;;;;;;;22.01;49.47;101644.97;5029439;28;20116;-71
2023/08/07 07:09:10;;;;;;;2.28;0.70;;;;;;;24.75;45.70;101639.16;5025151;28;20401;-71
2023/08/07 07:11:35;;;;;;;5.15;1.27;;;;;;;25.09;44.80;101648.75;5028959;28;20382;-70
2023/08/07 07:14:01;;;;;;;3.50;1.00;;;;;;;24.69;43.60;101641.22;5030309;28;20064;-72
2023/08/07 07:16:26;;;;;;;7.82;1.40;;;;;;;25.74;43.13;101655.63;5022586;28;20608;-72
2023/08/07 07:18:52;;;;;;;4.00;1.42;;;;;;;25.12;43.02;101656.59;5042708;28;20041;-73
2023/08/07 07:21:18;;;;;;;1.30;0.70;;;;;;;25.33;42.80;101657.16;5022928;28;20040;-72
2023/08/07 07:23:43;;;;;;;8.82;1.25;;;;;;;26.15;41.09;101649.53;5008493;28;20117;-72
2023/08/07 07:26:09;;;;;;;6.10;1.10;;;;;;;27.35;38.05;101661.44;5030646;28;20136;-72
2023/08/07 07:28:35;;;;;;;6.03;1.75;;;;;;;25.56;39.81;101662.97;5030720;28;20112;-71
2023/08/07 07:31:01;;;;;;;2.78;1.02;;;;;;;24.54;41.29;101669.66;5029685;28;20029;-73
2023/08/07 07:33:27;;;;;;;5.15;1.20;;;;;;;23.92;41.05;101674.81;5028809;28;20034;-72
2023/08/07 07:35:53;;;;;;;7.82;1.27;;;;;;;24.40;42.10;101672.25;5011481;28;20474;-71
2023/08/07 07:38:18;;;;;;;3.15;1.00;;;;;;;26.29;38.08;101661.22;5025308;28;20029;-73
2023/08/07 07:40:45;;;;;;;1.33;1.00;;;;;;;25.89;38.81;101669.88;5024528;28;20033;-72
2023/08/07 07:43:10;;;;;;;5.88;0.90;;;;;;;26.96;38.19;101661.34;5010754;28;20030;-72
2023/08/07 07:45:36;;;;;;;7.53;1.67;;;;;;;26.73;37.90;101654.81;5008208;28;20034;-72
2023/08/07 07:48:02;;;;;;;5.80;1.20;;;;;;;25.44;39.18;101675.25;5028006;28;20029;-72
2023/08/07 07:50:28;;;;;;;7.15;1.08;;;;;;;24.80;40.27;101680.72;5028862;28;20029;-72
2023/08/07 07:52:54;;;;;;;4.25;1.48;;;;;;;24.47;39.85;101684.31;5028403;28;20124;-73
2023/08/07 07:55:19;;;;;;;6.85;0.73;;;;;;;24.68;41.02;101692.09;5030900;28;20026;-72
2023/08/07 07:57:45;;;;;;;2.22;0.68;;;;;;;23.78;40.90;101694.19;5027755;28;20516;-72
2023/08/07 08:00:12;;;;;;;6.80;0.88;;;;;;;24.31;41.97;101694.09;5024883;28;20080;-72
2023/08/07 08:02:40;;;;;;;3.90;1.42;;;;;;;25.05;39.97;101698.03;5050684;28;20444;-72
2023/08/07 08:05:07;;;;;;;6.03;1.25;;;;;;;24.20;41.14;101708.88;5029778;28;20033;-72
2023/08/07 08:07:34;;;;;;;4.60;0.98;;;;;;;25.35;39.05;101697.22;5012628;28;20025;-73
2023/08/07 08:10:00;;;;;;;4.03;0.70;;;;;;;25.04;39.02;101693.63;5030565;28;20025;-73
2023/08/07 08:12:25;;;;;;;4.20;1.10;;;;;;;27.11;36.36;101697.03;5028771;28;20815;-72
2023/08/07 08:14:51;;;;;;;7.13;1.00;;;;;;;26.45;37.06;101694.09;5028815;28;20116;-72
2023/08/07 08:17:16;;;;;;;2.90;0.70;;;;;;;24.89;38.87;101700.72;5019745;28;20116;-72
2023/08/07 08:19:42;;;;;;;3.05;1.38;;;;;;;24.29;39.58;101707.56;5027513;28;20505;-73
2023/08/07 08:22:07;;;;;;;4.28;0.98;;;;;;;26.33;36.37;101711.81;5029398;28;20069;-72
2023/08/07 08:24:33;;;;;;;3.25;0.93;;;;;;;27.77;35.24;101711.34;5012617;28;20026;-72
2023/08/07 08:26:58;;;;;;;6.32;0.90;;;;;;;28.47;33.61;101714.56;5039832;28;20484;-72
2023/08/07 08:29:24;;;;;;;2.13;1.15;;;;;;;28.23;34.60;101718.06;5028100;28;20143;-72
2023/08/07 08:31:51;;;;;;;4.63;1.13;;;;;;;26.28;34.66;101729.16;5024583;28;20041;-72
2023/08/07 08:34:16;;;;;;;1.92;0.68;;;;;;;24.39;37.53;101745.31;5030684;28;20051;-72
2023/08/07 08:36:42;;;;;;;1.55;0.50;;;;;;;24.32;38.65;101733.25;5026617;28;20029;-72
2023/08/07 08:39:07;;;;;;;6.13;0.95;;;;;;;26.18;35.43;101729.72;5010496;28;20068;-73
2023/08/07 08:41:33;;;;;;;3.55;0.95;;;;;;;26.06;37.48;101725.09;5010582;28;20038;-73
2023/08/07 08:44:01;;;;;;;3.00;0.90;;;;;;;27.53;35.79;101730.03;5027083;28;20034;-72
2023/08/07 08:46:29;;;;;;;6.97;0.98;;;;;;;24.76;36.82;101737.97;5028090;28;20029;-73
2023/08/07 08:48:57;;;;;;;5.90;0.90;;;;;;;25.60;36.65;101743.94;5025173;28;20290;-73
2023/08/07 08:51:24;;;;;;;4.88;0.50;;;;;;;26.05;34.91;101739.47;5029397;28;20033;-72
2023/08/07 08:53:53;;;;;;;2.45;1.00;;;;;;;27.01;33.89;101741.50;5044578;28;20067;-73
2023/08/07 08:56:19;;;;;;;3.47;1.40;;;;;;;28.18;32.93;101730.94;5028192;28;20073;-72
2023/08/07 08:58:45;;;;;;;5.90;1.48;;;;;;;26.04;35.77;101743.97;5039653;28;20036;-71
2023/08/07 09:01:12;;;;;;;2.00;0.70;;;;;;;26.17;35.54;101744.09;5013286;28;20026;-72
2023/08/07 09:03:37;;;;;;;5.55;1.23;;;;;;;25.70;36.64;101750.47;5020988;28;20059;-72
2023/08/07 09:06:03;;;;;;;2.30;0.82;;;;;;;24.56;37.60;101753.28;5032589;28;20057;-73
2023/08/07 09:08:30;;;;;;;5.95;0.85;;;;;;;27.05;36.39;101740.34;5031216;28;20067;-73
2023/08/07 09:10:56;;;;;;;2.75;0.80;;;;;;;26.10;35.93;101748.06;5031790;28;20595;-72
2023/08/07 09:13:26;;;;;;;6.00;0.80;;;;;;;25.90;35.69;101752.81;5032262;28;20115;-72
2023/08/07 09:15:53;;;;;;;4.28;0.75;;;;;;;26.92;35.65;101754.56;5031617;28;20037;-72
2023/08/07 09:18:21;;;;;;;2.00;0.77;;;;;;;27.54;34.18;101747.84;5032948;28;20116;-73
2023/08/07 09:20:48;;;;;;;1.25;0.75;;;;;;;26.54;35.58;101756.97;5013496;28;20038;-73
2023/08/07 09:23:16;;;;;;;2.05;0.80;;;;;;;26.00;35.98;101762.97;5031290;28;20167;-71
2023/08/07 09:25:42;;;;;;;5.28;1.00;;;;;;;26.29;35.06;101773.75;5036532;28;20033;-71
2023/08/07 09:28:09;;;;;;;7.07;0.80;;;;;;;27.22;34.82;101758.88;5032541;28;20083;-71
2023/08/07 09:30:38;;;;;;;1.88;0.60;;;;;;;26.78;35.27;101765.31;5042131;28;20049;-71
2023/08/07 09:33:04;;;;;;;4.90;1.05;;;;;;;24.96;38.09;101778.78;5032181;28;20029;-71
2023/08/07 09:35:31;;;;;;;2.88;1.23;;;;;;;25.96;36.46;101770.31;5031248;28;20040;-71
2023/08/07 09:37:57;;;;;;;0.52;0.40;;;;;;;26.55;35.60;101772.97;5041287;28;20025;-72
2023/08/07 09:40:23;;;;;;;2.30;0.70;;;;;;;24.89;37.21;101770.22;5017140;28;20123;-72
2023/08/07 09:42:53;;;;;;;2.45;1.08;;;;;;;25.98;38.04;101775.56;5033786;28;20489;-72
2023/08/07 09:45:24;;;;;;;1.63;0.52;;;;;;;25.52;35.33;101772.00;5036311;28;20033;-72
2023/08/07 09:48:00;;;;;;;1.27;0.90;;;;;;;25.27;37.06;101785.06;5030744;28;20029;-72
2023/08/07 09:50:27;;;;;;;4.72;0.80;;;;;;;25.60;35.77;101786.78;5017906;28;20037;-72
2023/08/07 09:52:53;;;;;;;2.10;0.50;;;;;;;25.40;35.41;101786.09;5028890;28;20029;-72
2023/08/07 09:55:19;;;;;;;3.67;0.57;;;;;;;25.22;35.40;101783.53;5033008;28;20505;-71
2023/08/07 09:57:44;;;;;;;2.42;0.75;;;;;;;26.20;34.35;101776.03;5047836;28;20132;-72
2023/08/07 10:00:12;;;;;;;2.63;0.88;;;;;;;25.62;35.40;101787.53;5030000;28;20043;-72
2023/08/07 10:02:42;;;;;;;1.50;0.60;;;;;;;25.88;34.14;101781.50;5021267;28;20031;-72
2023/08/07 10:05:09;;;;;;;3.15;0.60;;;;;;;27.32;33.66;101790.47;5030874;28;20174;-72
2023/08/07 10:07:37;;;;;;;1.52;0.80;;;;;;;25.52;36.07;101789.88;5028969;28;20029;-72
2023/08/07 10:10:03;;;;;;;4.07;0.90;;;;;;;26.02;35.39;101787.84;5041073;28;20118;-72
2023/08/07 10:12:29;;;;;;;4.03;1.00;;;;;;;25.38;35.49;101798.72;5034303;28;20032;-73
2023/08/07 10:14:55;;;;;;;2.28;0.82;;;;;;;25.79;35.33;101792.75;5029990;28;20033;-72
2023/08/07 10:17:24;;;;;;;4.85;0.85;;;;;;;25.31;36.03;101786.63;5031170;28;20110;-73
2023/08/07 10:19:51;;;;;;;2.45;0.80;;;;;;;26.19;35.47;101787.69;5031201;28;20052;-73
2023/08/07 10:22:18;;;;;;;1.15;0.60;;;;;;;25.61;34.76;101793.84;5032330;28;20026;-72
2023/08/07 10:24:47;;;;;;;3.70;0.60;;;;;;;25.75;35.92;101796.56;5030534;28;20114;-72
2023/08/07 10:27:15;;;;;;;1.65;0.80;;;;;;;25.28;34.86;101795.69;5027030;28;20029;-73
2023/08/07 10:29:42;;;;;;;1.58;0.52;;;;;;;25.40;35.12;101808.38;5033879;28;20127;-73
2023/08/07 10:32:09;;;;;;;2.42;0.60;;;;;;;24.81;36.05;101801.88;5021858;28;20109;-73
2023/08/07 10:34:37;;;;;;;4.28;0.57;;;;;;;26.01;34.69;101796.84;5021295;28;20030;-72
2023/08/07 10:37:07;;;;;;;1.60;0.60;;;;;;;25.11;34.76;101807.31;5031536;28;20099;-72
2023/08/07 10:39:32;;;;;;;4.43;0.70;;;;;;;25.82;34.59;101814.00;5020359;28;20390;-72
2023/08/07 10:41:58;;;;;;;3.28;1.15;;;;;;;25.43;35.57;101809.16;5013151;28;20083;-72
2023/08/07 10:44:33;;;;;;;0.90;0.65;;;;;;;24.20;37.73;101813.06;5030869;28;20032;-73
2023/08/07 10:46:58;;;;;;;1.30;0.70;;;;;;;24.31;36.74;101803.63;5030956;28;20044;-73
2023/08/07 10:49:31;;;;;;;4.90;1.30;;;;;;;25.87;35.70;101811.91;5031168;28;20459;-73
2023/08/07 10:51:57;;;;;;;3.28;0.85;;;;;;;24.94;35.19;101818.13;5034464;28;20029;-73
2023/08/07 10:54:24;;;;;;;3.92;0.57;;;;;;;25.37;35.27;101805.00;5030000;28;20036;-72
2023/08/07 10:56:54;;;;;;;9.68;0.90;;;;;;;25.49;34.80;101796.28;5050169;28;20045;-73
2023/08/07 10:59:21;;;;;;;2.38;0.70;;;;;;;25.14;34.61;101803.59;5030999;28;20580;-72
2023/08/07 11:01:51;;;;;;;1.20;0.88;;;;;;;25.41;34.55;101811.91;5046121;28;20087;-73
2023/08/07 11:04:17;;;;;;;2.03;0.82;;;;;;;25.31;33.99;101818.72;5030523;28;20025;-73
2023/08/07 11:06:44;;;;;;;2.17;0.80;;;;;;;25.21;34.41;101821.91;5030654;28;20033;-72
2023/08/07 11:09:10;;;;;;;3.78;1.33;;;;;;;24.90;34.23;101822.75;5011517;28;20068;-73
2023/08/07 11:11:46;;;;;;;4.20;0.90;;;;;;;25.49;35.53;101812.34;5026180;28;20056;-71
2023/08/07 11:14:16;;;;;;;0.60;0.45;;;;;;;24.51;36.70;101826.59;5011053;28;20068;-73
2023/08/07 11:16:43;;;;;;;1.25;0.63;;;;;;;24.79;36.66;101818.00;5026321;28;20378;-72
2023/08/07 11:19:09;;;;;;;2.70;0.70;;;;;;;26.44;35.08;101815.66;5011255;28;20029;-73